Time;durP1;ratioP1;P1;durP2;ratioP2;P2;SDS_P1;SDS_P2;PMS_P1;PMS_P2;Temp;Humidity;BMP_temperature;BMP_pressure;BME280_temperature;BME280_humidity;BME280_pressure;Samples;Min_cycle;Max_cycle;Signal;HPM_P1;HPM_P2
2022/06/26 00:00:25;;;;;;;;;;;;;;;;;;4974814;28;19914;-78
2022/06/26 00:02:50;;;;;;;;;;;;;;;;;;4941191;28;19921;-80
2022/06/26 00:05:16;;;;;;;;;;;;;;;;;;4975368;28;20016;-80
2022/06/26 00:07:41;;;;;;;;;;;;;;;;;;4958057;28;19961;-79
2022/06/26 00:10:07;;;;;;;;;;;;;;;;;;4957404;28;19921;-80
2022/06/26 00:12:33;;;;;;;;;;;;;;;;;;4956807;28;19925;-79
2022/06/26 00:14:58;;;;;;;;;;;;;;;;;;4976217;28;19949;-80
2022/06/26 00:17:24;;;;;;;;;;;;;;;;;;4975001;28;19921;-79
2022/06/26 00:19:49;;;;;;;;;;;;;;;;;;4957186;28;19938;-78
2022/06/26 00:22:16;;;;;;;;;;;;;;;;;;4957811;28;19914;-79
2022/06/26 00:24:42;;;;;;;;;;;;;;;;;;4958157;28;19914;-80
2022/06/26 00:27:07;;;;;;;;;;;;;;;;;;4942484;28;19914;-80
2022/06/26 00:29:33;;;;;;;;;;;;;;;;;;4957821;28;19914;-78
2022/06/26 00:31:58;;;;;;;;;;;;;;;;;;4942226;28;19918;-78
2022/06/26 00:34:26;;;;;;;;;;;;;;;;;;4958658;28;19921;-80
2022/06/26 00:36:52;;;;;;;;;;;;;;;;;;4958315;28;19914;-79
2022/06/26 00:39:17;;;;;;;;;;;;;;;;;;4942438;28;19914;-80
2022/06/26 00:41:43;;;;;;;;;;;;;;;;;;4958202;28;19921;-79
2022/06/26 00:44:09;;;;;;;;;;;;;;;;;;4958009;28;19968;-79
2022/06/26 00:46:34;;;;;;;;;;;;;;;;;;4958410;28;19925;-78
2022/06/26 00:49:00;;;;;;;;;;;;;;;;;;4958099;28;19921;-80
2022/06/26 00:53:58;;;;;;;;;;;;;;;;;;4992295;28;19992;-86
2022/06/26 00:56:24;;;;;;;;;;;;;;;;;;4976796;28;19917;-87
2022/06/26 00:58:49;;;;;;;;;;;;;;;;;;4992514;28;19921;-86
2022/06/26 01:01:15;;;;;;;;;;;;;;;;;;4992260;28;20388;-86
2022/06/26 01:03:40;;;;;;;;;;;;;;;;;;4992417;28;19910;-86
2022/06/26 01:06:06;;;;;;;;;;;;;;;;;;4976289;28;19914;-87
2022/06/26 01:08:31;;;;;;;;;;;;;;;;;;4961002;28;19910;-87
2022/06/26 01:10:57;;;;;;;;;;;;;;;;;;4944352;28;19913;-88
2022/06/26 01:13:22;;;;;;;;;;;;;;;;;;4975769;28;20396;-86
2022/06/26 01:15:48;;;;;;;;;;;;;;;;;;4975573;28;19933;-86
2022/06/26 01:18:13;;;;;;;;;;;;;;;;;;4976018;28;19913;-87
2022/06/26 01:20:39;;;;;;;;;;;;;;;;;;4960425;28;19960;-87
2022/06/26 01:23:04;;;;;;;;;;;;;;;;;;4962038;28;19914;-86
2022/06/26 01:25:30;;;;;;;;;;;;;;;;;;4963530;28;19950;-86
2022/06/26 01:27:56;;;;;;;;;;;;;;;;;;4979541;28;19914;-87
2022/06/26 01:30:21;;;;;;;;;;;;;;;;;;4947878;28;19917;-88
2022/06/26 01:32:46;;;;;;;;;;;;;;;;;;4963153;28;19918;-86
2022/06/26 01:35:12;;;;;;;;;;;;;;;;;;4979594;28;19949;-86
2022/06/26 01:37:45;;;;;;;;;;;;;;;;;;4979346;28;19921;-88
2022/06/26 01:40:10;;;;;;;;;;;;;;;;;;4962936;28;19917;-88
2022/06/26 01:42:35;;;;;;;;;;;;;;;;;;4995916;28;19910;-87
2022/06/26 01:45:01;;;;;;;;;;;;;;;;;;4978676;28;19988;-87
2022/06/26 01:47:26;;;;;;;;;;;;;;;;;;4963351;28;20428;-86
2022/06/26 01:49:51;;;;;;;;;;;;;;;;;;4946814;28;19984;-85
2022/06/26 01:52:17;;;;;;;;;;;;;;;;;;4978687;28;19917;-87
2022/06/26 01:54:45;;;;;;;;;;;;;;;;;;4964131;28;19937;-86
2022/06/26 01:57:10;;;;;;;;;;;;;;;;;;4979000;28;20415;-87
2022/06/26 01:59:36;;;;;;;;;;;;;;;;;;4980332;28;19983;-87
2022/06/26 02:02:03;;;;;;;;;;;;;;;;;;4978469;28;20021;-86
2022/06/26 02:04:29;;;;;;;;;;;;;;;;;;4996226;28;20400;-85
2022/06/26 02:06:55;;;;;;;;;;;;;;;;;;4947297;28;19914;-86
2022/06/26 02:14:51;;;;;;;;;;;;;;;;;;4980072;28;19983;-86
2022/06/26 02:17:16;;;;;;;;;;;;;;;;;;4981507;28;19910;-88
2022/06/26 02:19:41;;;;;;;;;;;;;;;;;;4984347;28;20000;-86
2022/06/26 02:22:07;;;;;;;;;;;;;;;;;;5002846;28;20033;-85
2022/06/26 02:24:32;;;;;;;;;;;;;;;;;;4981464;28;19936;-86
2022/06/26 02:26:57;;;;;;;;;;;;;;;;;;4979094;28;19949;-87
2022/06/26 02:29:23;;;;;;;;;;;;;;;;;;4978652;28;20029;-87
2022/06/26 02:31:48;;;;;;;;;;;;;;;;;;4977726;28;20289;-86
2022/06/26 02:34:14;;;;;;;;;;;;;;;;;;4977118;28;19918;-86
2022/06/26 02:36:42;;;;;;;;;;;;;;;;;;4995382;28;19949;-87
2022/06/26 02:39:07;;;;;;;;;;;;;;;;;;4978103;28;20415;-86
2022/06/26 02:41:33;;;;;;;;;;;;;;;;;;4977338;28;20380;-86
2022/06/26 02:43:58;;;;;;;;;;;;;;;;;;4977640;28;19960;-87
2022/06/26 02:46:23;;;;;;;;;;;;;;;;;;4995002;28;19921;-87
2022/06/26 02:48:49;;;;;;;;;;;;;;;;;;4977916;28;19914;-86
2022/06/26 02:51:16;;;;;;;;;;;;;;;;;;4945969;28;19918;-87
2022/06/26 02:53:41;;;;;;;;;;;;;;;;;;4962014;28;19929;-85
2022/06/26 02:56:06;;;;;;;;;;;;;;;;;;4961663;28;19964;-87
2022/06/26 02:58:33;;;;;;;;;;;;;;;;;;4946198;28;19918;-87
2022/06/26 03:01:01;;;;;;;;;;;;;;;;;;4946100;28;19940;-87
2022/06/26 03:03:26;;;;;;;;;;;;;;;;;;4961788;28;20341;-87
2022/06/26 03:05:52;;;;;;;;;;;;;;;;;;4945903;28;19968;-87
2022/06/26 03:08:22;;;;;;;;;;;;;;;;;;4962558;28;19917;-87
2022/06/26 03:10:49;;;;;;;;;;;;;;;;;;4946164;28;19920;-87
2022/06/26 03:13:14;;;;;;;;;;;;;;;;;;4961244;28;20284;-87
2022/06/26 03:15:43;;;;;;;;;;;;;;;;;;4946013;28;20008;-86
2022/06/26 03:18:09;;;;;;;;;;;;;;;;;;4945735;28;20008;-86
2022/06/26 03:20:36;;;;;;;;;;;;;;;;;;4977644;28;20040;-86
2022/06/26 03:23:01;;;;;;;;;;;;;;;;;;4977762;28;19965;-88
2022/06/26 03:25:27;;;;;;;;;;;;;;;;;;4995528;28;19914;-86
2022/06/26 03:27:53;;;;;;;;;;;;;;;;;;4963307;28;19914;-87
2022/06/26 03:30:19;;;;;;;;;;;;;;;;;;4981155;28;20001;-86
2022/06/26 03:32:49;;;;;;;;;;;;;;;;;;4951326;28;19914;-86
2022/06/26 03:35:16;;;;;;;;;;;;;;;;;;4966693;28;20409;-88
2022/06/26 03:37:42;;;;;;;;;;;;;;;;;;4983825;28;19920;-86
2022/06/26 03:40:08;;;;;;;;;;;;;;;;;;5000777;28;20006;-86
2022/06/26 03:42:33;;;;;;;;;;;;;;;;;;4999200;28;20427;-86
2022/06/26 03:44:58;;;;;;;;;;;;;;;;;;4982099;28;20399;-88
2022/06/26 03:47:24;;;;;;;;;;;;;;;;;;5002050;28;20372;-87
2022/06/26 03:49:53;;;;;;;;;;;;;;;;;;4986894;28;20381;-86
2022/06/26 03:52:19;;;;;;;;;;;;;;;;;;5002120;28;19985;-85
2022/06/26 03:54:45;;;;;;;;;;;;;;;;;;4990189;28;19914;-86
2022/06/26 03:57:10;;;;;;;;;;;;;;;;;;4993108;28;19939;-87
2022/06/26 03:59:36;;;;;;;;;;;;;;;;;;4991359;28;20376;-86
2022/06/26 04:02:02;;;;;;;;;;;;;;;;;;4966737;28;19914;-86
2022/06/26 04:04:28;;;;;;;;;;;;;;;;;;4986631;28;20208;-86
2022/06/26 04:06:54;;;;;;;;;;;;;;;;;;4984727;28;20366;-85
2022/06/26 04:09:27;;;;;;;;;;;;;;;;;;4967236;28;20285;-86
2022/06/26 04:11:53;;;;;;;;;;;;;;;;;;4965601;28;19917;-85
2022/06/26 04:14:19;;;;;;;;;;;;;;;;;;4980171;28;19952;-85
2022/06/26 04:16:44;;;;;;;;;;;;;;;;;;4948752;28;19920;-86
2022/06/26 04:19:10;;;;;;;;;;;;;;;;;;4962403;28;20060;-86
2022/06/26 04:21:35;;;;;;;;;;;;;;;;;;4977428;28;19921;-85
2022/06/26 04:24:05;;;;;;;;;;;;;;;;;;4979034;28;19977;-88
2022/06/26 04:26:31;;;;;;;;;;;;;;;;;;4961666;28;19918;-86
2022/06/26 04:28:56;;;;;;;;;;;;;;;;;;4960680;28;19921;-86
2022/06/26 04:31:22;;;;;;;;;;;;;;;;;;4976474;28;20008;-86
2022/06/26 04:33:50;;;;;;;;;;;;;;;;;;4976744;28;19921;-86
2022/06/26 04:36:15;;;;;;;;;;;;;;;;;;4960687;28;19914;-85
2022/06/26 04:38:41;;;;;;;;;;;;;;;;;;4976232;28;20384;-86
2022/06/26 04:43:52;;;;;;;;;;;;;;;;;;4994284;28;19918;-87
2022/06/26 04:46:17;;;;;;;;;;;;;;;;;;4960643;28;19916;-87
2022/06/26 04:48:43;;;;;;;;;;;;;;;;;;4976563;28;19921;-87
2022/06/26 04:51:11;;;;;;;;;;;;;;;;;;4960484;28;20289;-86
2022/06/26 04:53:39;;;;;;;;;;;;;;;;;;4976275;28;19977;-86
2022/06/26 04:56:05;;;;;;;;;;;;;;;;;;4994158;28;19956;-87
2022/06/26 04:58:37;;;;;;;;;;;;;;;;;;4965201;28;20387;-86
2022/06/26 05:01:04;;;;;;;;;;;;;;;;;;4964259;28;19914;-86
2022/06/26 05:03:47;;;;;;;;;;;;;;;;;;4963500;28;19913;-85
2022/06/26 05:06:39;;;;;;;;;;;;;;;;;;4982107;28;19914;-86
2022/06/26 05:09:18;;;;;;;;;;;;;;;;;;4979691;28;19914;-86
2022/06/26 05:11:43;;;;;;;;;;;;;;;;;;4979287;28;19987;-86
2022/06/26 05:14:08;;;;;;;;;;;;;;;;;;4996874;28;19917;-86
2022/06/26 05:16:49;;;;;;;;;;;;;;;;;;4996999;28;19913;-86
2022/06/26 05:19:14;;;;;;;;;;;;;;;;;;4963884;28;20407;-86
2022/06/26 05:21:40;;;;;;;;;;;;;;;;;;4979934;28;20416;-88
2022/06/26 05:24:05;;;;;;;;;;;;;;;;;;4979664;28;20369;-86
2022/06/26 05:26:30;;;;;;;;;;;;;;;;;;4979117;28;19921;-86
2022/06/26 05:28:56;;;;;;;;;;;;;;;;;;4963052;28;19921;-86
2022/06/26 05:31:21;;;;;;;;;;;;;;;;;;4962865;28;19928;-86
2022/06/26 05:33:47;;;;;;;;;;;;;;;;;;4963165;28;19952;-87
2022/06/26 05:36:13;;;;;;;;;;;;;;;;;;4963050;28;19917;-87
2022/06/26 05:38:38;;;;;;;;;;;;;;;;;;4979335;28;19921;-87
2022/06/26 05:41:04;;;;;;;;;;;;;;;;;;4978747;28;19914;-86
2022/06/26 05:43:29;;;;;;;;;;;;;;;;;;4979174;28;19917;-87
2022/06/26 05:45:55;;;;;;;;;;;;;;;;;;4979102;28;19918;-87
2022/06/26 05:48:27;;;;;;;;;;;;;;;;;;4996424;28;19914;-86
2022/06/26 05:51:25;;;;;;;;;;;;;;;;;;4963596;28;19922;-86
2022/06/26 05:53:55;;;;;;;;;;;;;;;;;;4988121;28;20021;-86
2022/06/26 05:56:41;;;;;;;;;;;;;;;;;;4975615;28;19996;-87
2022/06/26 05:59:16;;;;;;;;;;;;;;;;;;4999073;28;19914;-87
2022/06/26 06:02:02;;;;;;;;;;;;;;;;;;4998005;28;20384;-85
2022/06/26 06:04:27;;;;;;;;;;;;;;;;;;4979243;28;19917;-86
2022/06/26 06:06:55;;;;;;;;;;;;;;;;;;4979185;28;20012;-86
2022/06/26 06:09:20;;;;;;;;;;;;;;;;;;4978952;28;19952;-87
2022/06/26 06:11:45;;;;;;;;;;;;;;;;;;4962252;28;19976;-85
2022/06/26 06:14:15;;;;;;;;;;;;;;;;;;4978561;28;19949;-85
2022/06/26 06:16:41;;;;;;;;;;;;;;;;;;4978907;28;19925;-87
2022/06/26 06:19:06;;;;;;;;;;;;;;;;;;4965168;28;19910;-87
2022/06/26 06:21:33;;;;;;;;;;;;;;;;;;4978825;28;19914;-87
2022/06/26 06:23:58;;;;;;;;;;;;;;;;;;4978855;28;20332;-86
2022/06/26 06:26:25;;;;;;;;;;;;;;;;;;4946931;28;19921;-86
2022/06/26 06:28:52;;;;;;;;;;;;;;;;;;4979153;28;20408;-86
2022/06/26 06:31:17;;;;;;;;;;;;;;;;;;4978881;28;19918;-86
2022/06/26 06:33:43;;;;;;;;;;;;;;;;;;4962132;28;19916;-85
2022/06/26 06:36:09;;;;;;;;;;;;;;;;;;4962951;28;19914;-86
2022/06/26 06:38:36;;;;;;;;;;;;;;;;;;4984306;28;20377;-85
2022/06/26 06:41:05;;;;;;;;;;;;;;;;;;5002117;28;19910;-88
2022/06/26 06:43:40;;;;;;;;;;;;;;;;;;4984593;28;19953;-84
2022/06/26 06:46:24;;;;;;;;;;;;;;;;;;4986311;28;19936;-85
2022/06/26 06:48:58;;;;;;;;;;;;;;;;;;4954978;28;19918;-85
2022/06/26 06:51:30;;;;;;;;;;;;;;;;;;4967547;28;20040;-86
2022/06/26 06:53:55;;;;;;;;;;;;;;;;;;5005642;28;19985;-85
2022/06/26 06:56:21;;;;;;;;;;;;;;;;;;5014232;28;19910;-85
2022/06/26 06:58:46;;;;;;;;;;;;;;;;;;4977727;28;19914;-83
2022/06/26 07:01:11;;;;;;;;;;;;;;;;;;4975072;28;19914;-85
2022/06/26 07:03:37;;;;;;;;;;;;;;;;;;4964392;28;19914;-85
2022/06/26 07:06:02;;;;;;;;;;;;;;;;;;4981147;28;20001;-86
2022/06/26 07:08:28;;;;;;;;;;;;;;;;;;4978804;28;19914;-86
2022/06/26 07:10:54;;;;;;;;;;;;;;;;;;4946510;28;20391;-87
2022/06/26 07:13:20;;;;;;;;;;;;;;;;;;4962452;28;19913;-87
2022/06/26 07:15:45;;;;;;;;;;;;;;;;;;4946466;28;19920;-86
2022/06/26 07:18:11;;;;;;;;;;;;;;;;;;4961704;28;19918;-86
2022/06/26 07:20:37;;;;;;;;;;;;;;;;;;4994760;28;19913;-86
2022/06/26 07:23:04;;;;;;;;;;;;;;;;;;4977501;28;19910;-86
2022/06/26 07:25:55;;;;;;;;;;;;;;;;;;4962014;28;19913;-85
2022/06/26 07:28:22;;;;;;;;;;;;;;;;;;4960822;28;19953;-85
2022/06/26 07:30:47;;;;;;;;;;;;;;;;;;4976659;28;19980;-86
2022/06/26 07:35:57;;;;;;;;;;;;;;;;;;4977597;28;19921;-86
2022/06/26 07:38:22;;;;;;;;;;;;;;;;;;4994254;28;19910;-86
2022/06/26 07:40:48;;;;;;;;;;;;;;;;;;4961458;28;20008;-86
2022/06/26 07:43:13;;;;;;;;;;;;;;;;;;4976701;28;20266;-85
2022/06/26 07:45:39;;;;;;;;;;;;;;;;;;4960744;28;19917;-87
2022/06/26 07:48:07;;;;;;;;;;;;;;;;;;4976775;28;19914;-86
2022/06/26 07:50:36;;;;;;;;;;;;;;;;;;4960143;28;19914;-86
2022/06/26 07:53:01;;;;;;;;;;;;;;;;;;4959496;28;19928;-86
2022/06/26 07:55:27;;;;;;;;;;;;;;;;;;4976429;28;19914;-86
2022/06/26 07:57:52;;;;;;;;;;;;;;;;;;4960244;28;19914;-86
2022/06/26 08:00:18;;;;;;;;;;;;;;;;;;4960998;28;19921;-86
2022/06/26 08:02:43;;;;;;;;;;;;;;;;;;4960602;28;19914;-85
2022/06/26 08:05:09;;;;;;;;;;;;;;;;;;4944801;28;19913;-85
2022/06/26 08:07:37;;;;;;;;;;;;;;;;;;4976376;28;19926;-87
2022/06/26 08:10:03;;;;;;;;;;;;;;;;;;4994878;28;20031;-85
2022/06/26 08:12:28;;;;;;;;;;;;;;;;;;4960043;28;19949;-85
2022/06/26 08:14:53;;;;;;;;;;;;;;;;;;4994589;28;19976;-85
2022/06/26 08:17:19;;;;;;;;;;;;;;;;;;4960812;28;19914;-86
2022/06/26 08:19:44;;;;;;;;;;;;;;;;;;4976040;28;19921;-84
2022/06/26 08:22:09;;;;;;;;;;;;;;;;;;4976355;28;19918;-84
2022/06/26 08:24:40;;;;;;;;;;;;;;;;;;4993927;28;19936;-85
2022/06/26 08:27:05;;;;;;;;;;;;;;;;;;4944523;28;19914;-85
2022/06/26 08:29:31;;;;;;;;;;;;;;;;;;4944468;28;19976;-86
2022/06/26 08:31:56;;;;;;;;;;;;;;;;;;4963928;28;19918;-85
2022/06/26 08:34:21;;;;;;;;;;;;;;;;;;4966862;28;20288;-84
2022/06/26 08:36:47;;;;;;;;;;;;;;;;;;4980760;28;20203;-84
2022/06/26 08:39:12;;;;;;;;;;;;;;;;;;4964552;28;19913;-86
2022/06/26 08:41:38;;;;;;;;;;;;;;;;;;4980857;28;19914;-84
2022/06/26 08:44:03;;;;;;;;;;;;;;;;;;4984513;28;19953;-86
2022/06/26 08:46:29;;;;;;;;;;;;;;;;;;4969317;28;19920;-86
2022/06/26 08:48:54;;;;;;;;;;;;;;;;;;4983283;28;20405;-81
2022/06/26 08:51:20;;;;;;;;;;;;;;;;;;4985183;28;20465;-86
2022/06/26 08:53:45;;;;;;;;;;;;;;;;;;4999001;28;20294;-81
2022/06/26 08:56:11;;;;;;;;;;;;;;;;;;4987754;28;19917;-86
2022/06/26 08:58:36;;;;;;;;;;;;;;;;;;4998025;28;19920;-84
2022/06/26 09:01:01;;;;;;;;;;;;;;;;;;4997240;28;19961;-83
2022/06/26 09:03:27;;;;;;;;;;;;;;;;;;4979892;28;19914;-82
2022/06/26 09:05:52;;;;;;;;;;;;;;;;;;4963752;28;20339;-81
2022/06/26 09:08:18;;;;;;;;;;;;;;;;;;4997195;28;19921;-81
2022/06/26 09:10:44;;;;;;;;;;;;;;;;;;4997091;28;19960;-84
2022/06/26 09:13:09;;;;;;;;;;;;;;;;;;5000956;28;19972;-83
2022/06/26 09:15:35;;;;;;;;;;;;;;;;;;4990568;28;19965;-85
2022/06/26 09:18:01;;;;;;;;;;;;;;;;;;4990974;28;19922;-85
2022/06/26 09:20:26;;;;;;;;;;;;;;;;;;5003214;28;19977;-84
2022/06/26 09:22:52;;;;;;;;;;;;;;;;;;4953074;28;19957;-86
2022/06/26 09:25:18;;;;;;;;;;;;;;;;;;5001403;28;20440;-84
2022/06/26 09:27:44;;;;;;;;;;;;;;;;;;5001237;28;19914;-82
2022/06/26 09:30:09;;;;;;;;;;;;;;;;;;4984109;28;19914;-86
2022/06/26 09:32:35;;;;;;;;;;;;;;;;;;4981524;28;20300;-85
2022/06/26 09:35:00;;;;;;;;;;;;;;;;;;4966057;28;19937;-83
2022/06/26 09:37:26;;;;;;;;;;;;;;;;;;4951347;28;19973;-84
2022/06/26 09:39:51;;;;;;;;;;;;;;;;;;4983457;28;20278;-83
2022/06/26 09:42:21;;;;;;;;;;;;;;;;;;4999867;28;19938;-81
2022/06/26 09:44:46;;;;;;;;;;;;;;;;;;4980083;28;19968;-80
2022/06/26 09:47:12;;;;;;;;;;;;;;;;;;4997179;28;20001;-80
2022/06/26 09:49:37;;;;;;;;;;;;;;;;;;4997917;28;20465;-80
2022/06/26 09:52:02;;;;;;;;;;;;;;;;;;4998731;28;19949;-79
2022/06/26 09:54:28;;;;;;;;;;;;;;;;;;5005617;28;19921;-80
2022/06/26 09:56:53;;;;;;;;;;;;;;;;;;4975544;28;19941;-81
2022/06/26 09:59:18;;;;;;;;;;;;;;;;;;4996550;28;19958;-82
2022/06/26 10:07:12;;;;;;;;;;;;;;;;;;5004604;28;19918;-79
2022/06/26 10:09:37;;;;;;;;;;;;;;;;;;4984788;28;19961;-80
2022/06/26 10:12:03;;;;;;;;;;;;;;;;;;4977201;28;19918;-82
2022/06/26 10:14:29;;;;;;;;;;;;;;;;;;5016975;28;19968;-83
2022/06/26 10:16:54;;;;;;;;;;;;;;;;;;4985046;28;19905;-84
2022/06/26 10:19:20;;;;;;;;;;;;;;;;;;5004804;28;19925;-84
2022/06/26 10:21:45;;;;;;;;;;;;;;;;;;4983634;28;19914;-83
2022/06/26 10:24:10;;;;;;;;;;;;;;;;;;4984655;28;19914;-83
2022/06/26 10:26:36;;;;;;;;;;;;;;;;;;4981568;28;19961;-83
2022/06/26 10:29:01;;;;;;;;;;;;;;;;;;4980670;28;19918;-85
2022/06/26 10:31:27;;;;;;;;;;;;;;;;;;4962267;28;20365;-83
2022/06/26 10:33:52;;;;;;;;;;;;;;;;;;4977890;28;20312;-83
2022/06/26 10:36:17;;;;;;;;;;;;;;;;;;4979613;28;19921;-83
2022/06/26 10:38:43;;;;;;;;;;;;;;;;;;4996118;28;19995;-83
2022/06/26 10:43:52;;;;;;;;;;;;;;;;;;4995704;28;19917;-83
2022/06/26 10:46:18;;;;;;;;;;;;;;;;;;4980734;28;19910;-84
2022/06/26 10:48:43;;;;;;;;;;;;;;;;;;4977542;28;19921;-83
2022/06/26 10:51:08;;;;;;;;;;;;;;;;;;4995333;28;19996;-84
2022/06/26 10:53:34;;;;;;;;;;;;;;;;;;4960979;28;20000;-84
2022/06/26 10:55:59;;;;;;;;;;;;;;;;;;4976771;28;19951;-86
2022/06/26 10:58:25;;;;;;;;;;;;;;;;;;4996161;28;19914;-86
2022/06/26 11:00:50;;;;;;;;;;;;;;;;;;4962989;28;19920;-86
2022/06/26 11:03:19;;;;;;;;;;;;;;;;;;4961877;28;19921;-87
2022/06/26 11:05:44;;;;;;;;;;;;;;;;;;4978582;28;19915;-86
2022/06/26 11:08:10;;;;;;;;;;;;;;;;;;5001454;28;19914;-85
2022/06/26 11:10:35;;;;;;;;;;;;;;;;;;4962267;28;20049;-85
2022/06/26 11:13:01;;;;;;;;;;;;;;;;;;4945605;28;19925;-85
2022/06/26 11:15:26;;;;;;;;;;;;;;;;;;4948114;28;19921;-84
2022/06/26 11:17:52;;;;;;;;;;;;;;;;;;4983145;28;20000;-86
2022/06/26 11:23:01;;;;;;;;;;;;;;;;;;4979115;28;19920;-85
2022/06/26 11:25:30;;;;;;;;;;;;;;;;;;4963207;28;19965;-84
2022/06/26 11:27:56;;;;;;;;;;;;;;;;;;4977637;28;19961;-83
2022/06/26 11:30:25;;;;;;;;;;;;;;;;;;4980372;28;19953;-83
2022/06/26 11:32:50;;;;;;;;;;;;;;;;;;4995158;28;19980;-83
2022/06/26 11:35:16;;;;;;;;;;;;;;;;;;4995507;28;19914;-83
2022/06/26 11:37:42;;;;;;;;;;;;;;;;;;4977402;28;19910;-84
2022/06/26 11:40:10;;;;;;;;;;;;;;;;;;4945258;28;19917;-84
2022/06/26 11:42:35;;;;;;;;;;;;;;;;;;4976989;28;19976;-84
2022/06/26 11:45:01;;;;;;;;;;;;;;;;;;4977150;28;19917;-84
2022/06/26 11:47:30;;;;;;;;;;;;;;;;;;4944608;28;19921;-84
2022/06/26 11:49:55;;;;;;;;;;;;;;;;;;4944244;28;20064;-84
2022/06/26 11:52:21;;;;;;;;;;;;;;;;;;4993222;28;20472;-84
2022/06/26 11:54:46;;;;;;;;;;;;;;;;;;4976324;28;19921;-84
2022/06/26 11:57:12;;;;;;;;;;;;;;;;;;4960596;28;19913;-85
2022/06/26 11:59:37;;;;;;;;;;;;;;;;;;4944581;28;19921;-84
2022/06/26 12:02:03;;;;;;;;;;;;;;;;;;4960710;28;19918;-83
2022/06/26 12:04:28;;;;;;;;;;;;;;;;;;4960646;28;19914;-86
2022/06/26 12:06:54;;;;;;;;;;;;;;;;;;4960372;28;19983;-86
2022/06/26 12:09:23;;;;;;;;;;;;;;;;;;4944467;28;19936;-86
2022/06/26 12:11:49;;;;;;;;;;;;;;;;;;4975870;28;20186;-86
2022/06/26 12:14:15;;;;;;;;;;;;;;;;;;4992941;28;19960;-86
2022/06/26 12:16:40;;;;;;;;;;;;;;;;;;4944747;28;19918;-87
2022/06/26 12:19:15;;;;;;;;;;;;;;;;;;4944952;28;19936;-89
2022/06/26 12:21:40;;;;;;;;;;;;;;;;;;4944410;28;19913;-86
2022/06/26 12:24:05;;;;;;;;;;;;;;;;;;4977406;28;19932;-86
2022/06/26 12:26:31;;;;;;;;;;;;;;;;;;4961268;28;19917;-86
2022/06/26 12:29:00;;;;;;;;;;;;;;;;;;4944759;28;19914;-86
2022/06/26 12:31:25;;;;;;;;;;;;;;;;;;4960862;28;20400;-86
2022/06/26 12:33:51;;;;;;;;;;;;;;;;;;4945606;28;19914;-87
2022/06/26 12:36:16;;;;;;;;;;;;;;;;;;4996804;28;20144;-86
2022/06/26 12:38:41;;;;;;;;;;;;;;;;;;4962790;28;20428;-86
2022/06/26 12:41:16;;;;;;;;;;;;;;;;;;4946925;28;20366;-85
2022/06/26 12:43:41;;;;;;;;;;;;;;;;;;4996589;28;20417;-87
2022/06/26 12:46:06;;;;;;;;;;;;;;;;;;4980134;28;19910;-85
2022/06/26 12:48:32;;;;;;;;;;;;;;;;;;4963671;28;19921;-86
2022/06/26 12:51:00;;;;;;;;;;;;;;;;;;4948307;28;19914;-84
2022/06/26 12:53:25;;;;;;;;;;;;;;;;;;4963554;28;20145;-87
2022/06/26 12:55:50;;;;;;;;;;;;;;;;;;4962323;28;19949;-85
2022/06/26 12:58:16;;;;;;;;;;;;;;;;;;4975708;28;19962;-86
2022/06/26 13:00:41;;;;;;;;;;;;;;;;;;4989872;23;20024;-79
2022/06/26 13:03:10;;;;;;;;;;;;;;;;;;4935807;29;20001;-80
2022/06/26 13:05:38;;;;;;;;;;;;;;;;;;4937337;29;19942;-80
2022/06/26 13:08:03;;;;;;;;;;;;;;;;;;4937369;29;19954;-78
2022/06/26 13:10:29;;;;;;;;;;;;;;;;;;4954589;28;19914;-80
2022/06/26 13:13:20;;;;;;;;;;;;;;;;;;4894324;29;19924;-81
2022/06/26 13:15:52;;;;;;;;;;;;;;;;;;4934294;29;19921;-80
2022/06/26 13:18:23;;;;;;;;;;;;;;;;;;4954975;28;20236;-80
2022/06/26 13:20:49;;;;;;;;;;;;;;;;;;4955748;28;19969;-79
2022/06/26 13:23:14;;;;;;;;;;;;;;;;;;4957137;29;20314;-80
2022/06/26 13:26:04;;;;;;;;;;;;;;;;;;4928359;29;19918;-79
2022/06/26 13:28:30;;;;;;;;;;;;;;;;;;4955858;29;19921;-79
2022/06/26 13:30:55;;;;;;;;;;;;;;;;;;4939747;29;19915;-79
2022/06/26 13:33:22;;;;;;;;;;;;;;;;;;4956932;29;19925;-80
2022/06/26 13:35:47;;;;;;;;;;;;;;;;;;4940172;29;19930;-79
2022/06/26 13:38:13;;;;;;;;;;;;;;;;;;4957394;29;19993;-80
2022/06/26 13:40:38;;;;;;;;;;;;;;;;;;4956566;28;20001;-80
2022/06/26 13:43:04;;;;;;;;;;;;;;;;;;4957246;29;19953;-79
2022/06/26 13:45:35;;;;;;;;;;;;;;;;;;4957976;29;19922;-80
2022/06/26 13:48:13;;;;;;;;;;;;;;;;;;4943700;29;19914;-79
2022/06/26 13:50:42;;;;;;;;;;;;;;;;;;4941721;28;19965;-80
2022/06/26 13:53:07;;;;;;;;;;;;;;;;;;4941998;29;19950;-81
2022/06/26 13:55:33;;;;;;;;;;;;;;;;;;4957094;28;19969;-79
2022/06/26 13:57:59;;;;;;;;;;;;;;;;;;4940169;29;19918;-80
2022/06/26 14:00:24;;;;;;;;;;;;;;;;;;4956476;29;19922;-78
2022/06/26 14:02:50;;;;;;;;;;;;;;;;;;4956421;29;19920;-79
2022/06/26 14:05:16;;;;;;;;;;;;;;;;;;4925169;29;19915;-81
2022/06/26 14:07:41;;;;;;;;;;;;;;;;;;4959127;29;19921;-79
2022/06/26 14:10:10;;;;;;;;;;;;;;;;;;4960796;29;19922;-80
2022/06/26 14:12:36;;;;;;;;;;;;;;;;;;4927377;29;19918;-79
2022/06/26 14:15:02;;;;;;;;;;;;;;;;;;4958934;29;20305;-80
2022/06/26 14:17:27;;;;;;;;;;;;;;;;;;4941741;29;19958;-79
2022/06/26 14:19:55;;;;;;;;;;;;;;;;;;4939983;29;19914;-79
2022/06/26 14:27:57;;;;;;;;;;;;;;;;;;4939506;29;19922;-79
2022/06/26 14:30:23;;;;;;;;;;;;;;;;;;4939256;29;19918;-80
2022/06/26 14:32:48;;;;;;;;;;;;;;;;;;4922825;29;20035;-79
2022/06/26 14:35:14;;;;;;;;;;;;;;;;;;4939428;29;19914;-80
2022/06/26 14:37:39;;;;;;;;;;;;;;;;;;4956419;29;20080;-80
2022/06/26 14:40:04;;;;;;;;;;;;;;;;;;4956320;29;19949;-80
2022/06/26 14:42:30;;;;;;;;;;;;;;;;;;4923424;29;20341;-80
2022/06/26 14:44:56;;;;;;;;;;;;;;;;;;4939055;29;19914;-80
2022/06/26 14:47:21;;;;;;;;;;;;;;;;;;4939472;29;20009;-80
2022/06/26 14:49:47;;;;;;;;;;;;;;;;;;4956308;29;20005;-80
2022/06/26 14:52:12;;;;;;;;;;;;;;;;;;4956061;28;19919;-80
2022/06/26 14:54:38;;;;;;;;;;;;;;;;;;4938795;29;19919;-80
2022/06/26 14:57:03;;;;;;;;;;;;;;;;;;4954668;28;19914;-79
2022/06/26 14:59:29;;;;;;;;;;;;;;;;;;4938828;29;20385;-80
2022/06/26 15:01:55;;;;;;;;;;;;;;;;;;4929567;29;20278;-80
2022/06/26 15:04:20;;;;;;;;;;;;;;;;;;4956112;28;19981;-79
2022/06/26 15:06:46;;;;;;;;;;;;;;;;;;4954762;29;19914;-78
2022/06/26 15:09:11;;;;;;;;;;;;;;;;;;4955562;29;20384;-81
2022/06/26 15:11:36;;;;;;;;;;;;;;;;;;4954403;28;19914;-81
2022/06/26 15:14:02;;;;;;;;;;;;;;;;;;4955813;28;19962;-81
2022/06/26 15:16:28;;;;;;;;;;;;;;;;;;4955741;28;19934;-80
2022/06/26 15:18:53;;;;;;;;;;;;;;;;;;4955245;29;19946;-81
2022/06/26 15:21:19;;;;;;;;;;;;;;;;;;4972181;28;19925;-82
2022/06/26 15:23:45;;;;;;;;;;;;;;;;;;4957520;29;19914;-81
2022/06/26 15:26:11;;;;;;;;;;;;;;;;;;4955255;29;19924;-81
2022/06/26 15:28:36;;;;;;;;;;;;;;;;;;4970086;28;19937;-81
2022/06/26 15:31:02;;;;;;;;;;;;;;;;;;4955315;28;19941;-81
2022/06/26 15:33:27;;;;;;;;;;;;;;;;;;4955488;29;19925;-81
2022/06/26 15:36:18;;;;;;;;;;;;;;;;;;4955665;29;19915;-82
2022/06/26 15:38:43;;;;;;;;;;;;;;;;;;4955349;29;19922;-81
2022/06/26 15:41:09;;;;;;;;;;;;;;;;;;4969935;28;19915;-81
2022/06/26 15:43:34;;;;;;;;;;;;;;;;;;4955807;28;19914;-81
2022/06/26 15:46:00;;;;;;;;;;;;;;;;;;4955551;29;19938;-81
2022/06/26 15:48:28;;;;;;;;;;;;;;;;;;4954213;29;20286;-82
2022/06/26 15:50:54;;;;;;;;;;;;;;;;;;4953704;28;20059;-80
2022/06/26 15:53:19;;;;;;;;;;;;;;;;;;4953130;29;19996;-80
2022/06/26 15:55:45;;;;;;;;;;;;;;;;;;4953418;29;19922;-80
2022/06/26 15:58:11;;;;;;;;;;;;;;;;;;4969661;28;19910;-81
2022/06/26 16:00:36;;;;;;;;;;;;;;;;;;4955022;28;19914;-80
2022/06/26 16:03:02;;;;;;;;;;;;;;;;;;4969550;28;19936;-80
2022/06/26 16:05:27;;;;;;;;;;;;;;;;;;4954795;28;20246;-80
2022/06/26 16:07:53;;;;;;;;;;;;;;;;;;4953032;29;19914;-80
2022/06/26 16:10:18;;;;;;;;;;;;;;;;;;4954552;29;19918;-80
2022/06/26 16:12:44;;;;;;;;;;;;;;;;;;4969180;28;19922;-80
2022/06/26 16:15:10;;;;;;;;;;;;;;;;;;4954665;28;20349;-81
2022/06/26 16:17:35;;;;;;;;;;;;;;;;;;4954948;29;20267;-80
2022/06/26 16:20:01;;;;;;;;;;;;;;;;;;4953408;29;20326;-80
2022/06/26 16:27:55;;;;;;;;;;;;;;;;;;4969664;28;19921;-80
2022/06/26 16:30:20;;;;;;;;;;;;;;;;;;4954596;29;19914;-82
2022/06/26 16:32:46;;;;;;;;;;;;;;;;;;4969513;28;19914;-80
2022/06/26 16:35:13;;;;;;;;;;;;;;;;;;4953538;29;19942;-80
2022/06/26 16:37:38;;;;;;;;;;;;;;;;;;4953578;29;19915;-80
2022/06/26 16:40:04;;;;;;;;;;;;;;;;;;4969650;28;19922;-80
2022/06/26 16:42:29;;;;;;;;;;;;;;;;;;4968701;28;19911;-79
2022/06/26 16:44:55;;;;;;;;;;;;;;;;;;4953036;29;19915;-80
2022/06/26 16:47:20;;;;;;;;;;;;;;;;;;4953771;28;19914;-79
2022/06/26 16:49:46;;;;;;;;;;;;;;;;;;4968631;28;19959;-80
2022/06/26 16:52:11;;;;;;;;;;;;;;;;;;4968465;28;19958;-79
2022/06/26 16:54:37;;;;;;;;;;;;;;;;;;4955594;29;20001;-80
2022/06/26 16:57:02;;;;;;;;;;;;;;;;;;4956552;29;20255;-80
2022/06/26 16:59:27;;;;;;;;;;;;;;;;;;4957871;28;20352;-79
2022/06/26 17:01:53;;;;;;;;;;;;;;;;;;4955888;29;19965;-79
2022/06/26 17:04:19;;;;;;;;;;;;;;;;;;4956401;29;19918;-79
2022/06/26 17:06:44;;;;;;;;;;;;;;;;;;4956452;29;19914;-79
2022/06/26 17:09:10;;;;;;;;;;;;;;;;;;4957709;28;20334;-76
2022/06/26 17:11:35;;;;;;;;;;;;;;;;;;4956001;28;19921;-80
2022/06/26 17:14:01;;;;;;;;;;;;;;;;;;4972195;28;19914;-78
2022/06/26 17:16:26;;;;;;;;;;;;;;;;;;4972208;28;19914;-78